createdAt,value
2023-05-03T00:02:25.032Z,50.34
2023-05-03T00:04:55.252Z,50.75
2023-05-03T00:07:22.895Z,50.61
2023-05-03T00:09:50.162Z,50.21
2023-05-03T00:12:17.389Z,50.22
2023-05-03T00:14:46.286Z,50.57
2023-05-03T00:17:13.605Z,50.23
2023-05-03T00:19:40.945Z,50.62
2023-05-03T00:22:09.080Z,50.64
2023-05-03T00:24:36.245Z,50.80
2023-05-03T00:27:05.026Z,50.39
2023-05-03T00:29:32.628Z,50.58
2023-05-03T00:32:00.485Z,50.77
2023-05-03T00:34:27.701Z,50.66
2023-05-03T00:36:54.668Z,50.50
2023-05-03T00:39:21.825Z,50.86
2023-05-03T00:41:48.831Z,51.10
2023-05-03T00:44:16.431Z,50.58
2023-05-03T00:46:43.575Z,50.84
2023-05-03T00:49:10.978Z,50.84
2023-05-03T00:51:38.131Z,51.08
2023-05-03T00:54:05.783Z,51.00
2023-05-03T00:56:44.415Z,51.01
2023-05-03T00:59:19.315Z,50.45
2023-05-03T01:01:50.965Z,50.54
2023-05-03T01:04:20.282Z,50.82
2023-05-03T01:07:23.485Z,50.91
2023-05-03T01:10:15.761Z,50.71
2023-05-03T01:13:01.862Z,50.61
2023-05-03T01:15:48.926Z,51.07
2023-05-03T01:18:22.146Z,50.69
2023-05-03T01:20:50.952Z,51.29
2023-05-03T01:23:40.349Z,50.73
2023-05-03T01:26:24.305Z,50.64
2023-05-03T01:28:52.114Z,51.17
2023-05-03T01:31:37.135Z,50.61
2023-05-03T01:34:51.921Z,51.05
2023-05-03T01:37:19.025Z,50.88
2023-05-03T01:39:51.695Z,51.05
2023-05-03T01:42:20.647Z,51.10
2023-05-03T01:44:49.674Z,51.16
2023-05-03T01:47:17.386Z,51.22
2023-05-03T01:49:44.433Z,51.19
2023-05-03T01:52:11.446Z,51.17
2023-05-03T01:54:38.858Z,51.67
2023-05-03T01:57:05.834Z,51.27
2023-05-03T01:59:33.239Z,51.35
2023-05-03T02:02:00.300Z,51.15
2023-05-03T02:04:27.416Z,51.06
2023-05-03T02:06:55.290Z,51.51
2023-05-03T02:09:23.025Z,51.25
2023-05-03T02:11:50.116Z,51.14
2023-05-03T02:14:17.562Z,51.29
2023-05-03T02:16:44.748Z,51.51
2023-05-03T02:19:11.982Z,51.68
2023-05-03T02:21:40.097Z,51.29
2023-05-03T02:24:07.478Z,51.23
2023-05-03T02:26:34.735Z,51.63
2023-05-03T02:29:01.780Z,51.74
2023-05-03T02:31:32.050Z,51.17
2023-05-03T02:33:59.638Z,51.36
2023-05-03T02:36:27.018Z,51.48
2023-05-03T02:38:54.757Z,51.51
2023-05-03T02:41:21.715Z,51.73
2023-05-03T02:43:49.460Z,51.50
2023-05-03T02:46:16.540Z,51.88
2023-05-03T02:48:43.759Z,51.80
2023-05-03T02:51:11.607Z,51.36
2023-05-03T02:53:38.655Z,51.58
2023-05-03T02:56:06.453Z,51.08
2023-05-03T02:58:33.627Z,51.54
2023-05-03T03:01:03.080Z,51.69
2023-05-03T03:03:30.973Z,51.29
2023-05-03T03:05:58.124Z,51.28
2023-05-03T03:08:25.485Z,51.54
2023-05-03T03:10:54.706Z,51.61
2023-05-03T03:13:21.884Z,51.22
2023-05-03T03:15:49.137Z,51.35
2023-05-03T03:18:19.715Z,51.42
2023-05-03T03:20:47.225Z,51.88
2023-05-03T03:23:14.915Z,51.36
2023-05-03T03:25:43.103Z,51.69
2023-05-03T03:28:10.287Z,51.71
2023-05-03T03:30:38.463Z,51.47
2023-05-03T03:33:16.388Z,51.89
2023-05-03T03:35:43.607Z,51.78
2023-05-03T03:38:12.027Z,51.68
2023-05-03T03:40:47.196Z,51.67
2023-05-03T03:43:14.441Z,51.82
2023-05-03T03:45:41.910Z,51.67
2023-05-03T03:48:10.636Z,51.77
2023-05-03T03:50:37.897Z,51.81
2023-05-03T03:53:06.109Z,51.97
2023-05-03T03:55:34.128Z,51.73
2023-05-03T03:58:01.790Z,52.11
2023-05-03T04:00:30.058Z,52.02
2023-05-03T04:03:07.731Z,51.84
2023-05-03T04:05:35.803Z,51.70
2023-05-03T04:08:03.576Z,51.94
2023-05-03T04:10:33.110Z,51.65
2023-05-03T04:13:00.175Z,52.05
2023-05-03T04:15:27.483Z,51.91
2023-05-03T04:17:57.593Z,51.27
2023-05-03T04:20:25.244Z,51.38
2023-05-03T04:22:52.950Z,51.68
2023-05-03T04:25:25.706Z,51.56
2023-05-03T04:27:59.236Z,51.83
2023-05-03T04:30:29.396Z,51.74
2023-05-03T04:33:00.692Z,51.52
2023-05-03T04:35:29.881Z,51.36
2023-05-03T04:37:59.134Z,51.74
2023-05-03T04:40:27.893Z,51.60
2023-05-03T04:43:05.482Z,51.66
2023-05-03T04:45:36.234Z,51.29
2023-05-03T04:48:05.401Z,51.51
2023-05-03T04:50:34.370Z,51.57
2023-05-03T04:53:01.701Z,51.25
2023-05-03T04:55:30.657Z,51.72
2023-05-03T04:57:59.121Z,51.26
2023-05-03T05:00:26.184Z,51.70
2023-05-03T05:02:59.527Z,51.64
2023-05-03T05:05:29.492Z,51.70
2023-05-03T05:07:58.326Z,51.83
2023-05-03T05:10:28.344Z,51.57
2023-05-03T05:12:56.803Z,51.81
2023-05-03T05:15:24.066Z,51.49
2023-05-03T05:17:51.611Z,52.01
2023-05-03T05:20:20.228Z,51.41
2023-05-03T05:22:49.929Z,52.04
2023-05-03T05:25:17.036Z,51.95
2023-05-03T05:27:44.708Z,51.62
2023-05-03T05:30:12.024Z,51.66
2023-05-03T05:32:41.546Z,51.74
2023-05-03T05:35:11.744Z,51.66
2023-05-03T05:37:38.885Z,51.78
2023-05-03T05:40:08.364Z,51.84
2023-05-03T05:42:43.554Z,51.88
2023-05-03T05:45:11.412Z,51.85
2023-05-03T05:47:40.256Z,51.71
2023-05-03T05:50:16.978Z,51.66
2023-05-03T05:52:53.020Z,51.66
2023-05-03T05:55:21.153Z,51.99
2023-05-03T05:57:49.532Z,52.26
2023-05-03T06:00:21.506Z,52.07
2023-05-03T06:02:48.926Z,51.75
2023-05-03T06:05:19.093Z,52.23
2023-05-03T06:07:46.655Z,52.20
2023-05-03T06:10:13.695Z,51.86
2023-05-03T06:12:45.565Z,52.25
2023-05-03T06:15:17.444Z,52.13
2023-05-03T06:17:45.446Z,52.30
2023-05-03T06:20:12.828Z,52.17
2023-05-03T06:22:41.351Z,52.43
2023-05-03T06:25:10.650Z,51.85
2023-05-03T06:27:38.710Z,52.07
2023-05-03T06:30:08.224Z,52.19
2023-05-03T06:32:35.611Z,52.27
2023-05-03T06:35:03.518Z,52.06
2023-05-03T06:37:30.834Z,52.11
2023-05-03T06:39:57.834Z,51.71
2023-05-03T06:42:24.872Z,52.05
2023-05-03T06:45:06.014Z,52.01
2023-05-03T06:47:32.981Z,51.63
2023-05-03T06:50:00.173Z,51.71
2023-05-03T06:52:27.377Z,52.11
2023-05-03T06:54:54.328Z,51.73
2023-05-03T06:57:22.305Z,52.18
2023-05-03T06:59:49.215Z,51.88
2023-05-03T07:02:17.746Z,51.77
2023-05-03T07:04:44.668Z,51.59
2023-05-03T07:07:11.678Z,51.59
2023-05-03T07:09:43.167Z,51.61
2023-05-03T07:12:11.189Z,51.50
2023-05-03T07:14:39.783Z,51.69
2023-05-03T07:17:07.452Z,51.70
2023-05-03T07:19:34.542Z,51.65
2023-05-03T07:22:03.382Z,51.93
2023-05-03T07:24:30.578Z,51.74
2023-05-03T07:26:58.168Z,51.86
2023-05-03T07:29:26.185Z,51.39
2023-05-03T07:31:53.746Z,51.79
2023-05-03T07:34:21.339Z,51.55
2023-05-03T07:36:48.313Z,51.51
2023-05-03T07:39:15.779Z,51.59
2023-05-03T07:41:42.668Z,51.40
2023-05-03T07:44:09.772Z,51.59
2023-05-03T07:46:36.733Z,52.03
2023-05-03T07:49:06.423Z,51.62
2023-05-03T07:51:38.421Z,51.43
2023-05-03T07:54:06.366Z,51.77
2023-05-03T07:56:33.391Z,51.81
2023-05-03T07:59:09.276Z,51.53
2023-05-03T08:01:38.227Z,51.38
2023-05-03T08:04:05.833Z,51.16
2023-05-03T08:06:35.517Z,51.53
2023-05-03T08:09:04.691Z,51.45
2023-05-03T08:11:31.897Z,51.40
2023-05-03T08:13:58.787Z,51.56
2023-05-03T08:16:26.165Z,51.75
2023-05-03T08:18:53.161Z,51.69
2023-05-03T08:21:20.239Z,51.03
2023-05-03T08:23:47.137Z,51.38
2023-05-03T08:26:15.571Z,51.44
2023-05-03T08:28:42.918Z,51.28
2023-05-03T08:31:09.931Z,51.35
2023-05-03T08:33:37.237Z,51.46
2023-05-03T08:36:04.451Z,51.51
2023-05-03T08:38:31.476Z,51.46
2023-05-03T08:41:06.275Z,51.35
2023-05-03T08:43:36.997Z,51.57
2023-05-03T08:46:04.128Z,50.90
2023-05-03T08:48:31.715Z,50.96
2023-05-03T08:51:00.384Z,50.90
2023-05-03T08:53:27.350Z,51.40
2023-05-03T08:55:54.305Z,51.01
2023-05-03T08:58:21.528Z,50.88
2023-05-03T09:00:48.636Z,51.25
2023-05-03T09:03:15.872Z,50.97
2023-05-03T09:05:44.421Z,51.01
2023-05-03T09:08:13.593Z,50.78
2023-05-03T09:10:42.767Z,51.18
2023-05-03T09:13:10.906Z,50.90
2023-05-03T09:15:38.431Z,51.13
2023-05-03T09:18:19.729Z,50.57
2023-05-03T09:20:52.757Z,50.85
2023-05-03T09:23:26.442Z,50.99
2023-05-03T09:25:53.659Z,51.04
2023-05-03T09:28:21.385Z,50.86
2023-05-03T09:30:50.268Z,50.40
2023-05-03T09:33:29.164Z,50.46
2023-05-03T09:36:02.789Z,50.84
2023-05-03T09:38:33.527Z,50.81
2023-05-03T09:41:07.386Z,50.33
2023-05-03T09:43:38.082Z,50.55
2023-05-03T09:46:14.663Z,50.26
2023-05-03T09:48:42.209Z,50.67
2023-05-03T09:51:11.297Z,50.72
2023-05-03T09:53:39.823Z,50.79
2023-05-03T09:56:09.990Z,50.24
2023-05-03T09:58:37.677Z,50.71
2023-05-03T10:01:04.891Z,50.12
2023-05-03T10:03:40.937Z,50.34
2023-05-03T10:06:36.228Z,50.71
2023-05-03T10:09:25.113Z,49.93
2023-05-03T10:11:58.976Z,50.34
2023-05-03T10:14:26.487Z,50.11
2023-05-03T10:17:01.284Z,50.43
2023-05-03T10:19:40.705Z,49.82
2023-05-03T10:22:11.973Z,49.81
2023-05-03T10:25:02.565Z,49.96
2023-05-03T10:28:03.606Z,49.88
2023-05-03T10:30:40.662Z,49.94
2023-05-03T10:33:13.582Z,49.83
2023-05-03T10:35:44.056Z,49.52
2023-05-03T10:38:22.468Z,49.56
2023-05-03T10:40:49.966Z,50.11
2023-05-03T10:43:35.603Z,49.88
2023-05-03T10:46:11.972Z,49.78
2023-05-03T10:48:39.012Z,49.88
2023-05-03T10:51:28.971Z,49.64
2023-05-03T10:53:56.087Z,49.40
2023-05-03T10:56:24.005Z,49.38
2023-05-03T10:58:55.981Z,49.71
2023-05-03T11:01:24.675Z,49.89
2023-05-03T11:04:10.640Z,49.85
2023-05-03T11:06:41.203Z,49.78
2023-05-03T11:09:12.043Z,49.67
2023-05-03T11:11:41.069Z,49.23
2023-05-03T11:14:09.528Z,49.69
2023-05-03T11:16:40.687Z,49.38
2023-05-03T11:19:08.015Z,49.66
2023-05-03T11:21:36.368Z,49.25
2023-05-03T11:24:06.700Z,49.47
2023-05-03T11:26:40.289Z,49.15
2023-05-03T11:29:10.622Z,49.62
2023-05-03T11:31:37.823Z,49.33
2023-05-03T11:34:06.664Z,49.43
2023-05-03T11:36:34.185Z,49.41
2023-05-03T11:39:01.205Z,49.21
2023-05-03T11:41:28.328Z,49.41
2023-05-03T11:44:07.722Z,49.38
2023-05-03T11:46:39.055Z,49.09
2023-05-03T11:49:06.296Z,49.53
2023-05-03T11:51:33.720Z,49.22
2023-05-03T11:54:12.803Z,48.82
2023-05-03T11:56:40.551Z,48.92
2023-05-03T11:59:07.583Z,48.82
2023-05-03T12:01:34.866Z,49.02
2023-05-03T12:04:05.468Z,48.87
2023-05-03T12:06:36.060Z,49.02
2023-05-03T12:09:05.341Z,48.55
2023-05-03T12:11:45.054Z,48.80
2023-05-03T12:14:13.042Z,48.92
2023-05-03T12:16:56.966Z,48.50
2023-05-03T12:19:32.159Z,49.13
2023-05-03T12:24:33.255Z,49.04
2023-05-03T12:27:02.816Z,48.66
2023-05-03T12:29:34.518Z,48.31
2023-05-03T12:32:04.306Z,48.86
2023-05-03T12:34:35.669Z,48.85
2023-05-03T12:37:05.688Z,48.24
2023-05-03T12:39:33.999Z,48.65
2023-05-03T12:44:35.074Z,48.82
2023-05-03T12:47:04.369Z,48.21
2023-05-03T12:49:32.142Z,48.82
2023-05-03T12:54:33.764Z,48.72
2023-05-03T12:57:08.354Z,48.43
2023-05-03T12:59:41.793Z,48.47
2023-05-03T13:07:16.833Z,48.52
2023-05-03T13:12:20.451Z,47.99
2023-05-03T13:14:52.533Z,48.27
2023-05-03T13:17:22.833Z,47.96
2023-05-03T13:19:51.436Z,47.84
2023-05-03T13:22:18.785Z,47.81
2023-05-03T13:24:48.041Z,47.99
2023-05-03T13:27:16.497Z,48.03
2023-05-03T13:29:43.716Z,47.84
2023-05-03T13:32:12.457Z,47.54
2023-05-03T13:34:39.673Z,47.89
2023-05-03T13:37:06.874Z,47.86
2023-05-03T13:39:33.963Z,47.59
2023-05-03T13:42:01.285Z,47.74
2023-05-03T13:44:28.297Z,47.54
2023-05-03T13:46:56.503Z,47.66
2023-05-03T13:49:23.441Z,47.48
2023-05-03T13:51:50.909Z,47.89
2023-05-03T13:54:18.108Z,47.92
2023-05-03T13:56:45.767Z,47.64
2023-05-03T13:59:16.523Z,47.85
2023-05-03T14:01:43.941Z,47.63
2023-05-03T14:04:11.253Z,47.71
2023-05-03T14:06:41.355Z,47.62
2023-05-03T14:09:09.985Z,47.25
2023-05-03T14:11:38.021Z,47.58
2023-05-03T14:14:04.999Z,47.33
2023-05-03T14:19:03.696Z,47.81
2023-05-03T14:21:31.766Z,47.12
2023-05-03T14:23:58.947Z,47.51
2023-05-03T14:26:26.680Z,47.12
2023-05-03T14:28:53.759Z,47.46
2023-05-03T14:31:20.747Z,47.69
2023-05-03T14:33:47.897Z,47.34
2023-05-03T14:36:14.886Z,47.14
2023-05-03T14:38:41.935Z,47.55
2023-05-03T14:41:09.250Z,46.99
2023-05-03T14:43:37.472Z,46.99
2023-05-03T14:46:04.634Z,47.00
2023-05-03T14:48:31.630Z,46.92
2023-05-03T14:50:58.806Z,46.80
2023-05-03T14:53:25.841Z,46.73
2023-05-03T14:55:54.450Z,47.28
2023-05-03T14:58:21.709Z,47.02
2023-05-03T15:00:49.098Z,47.09
2023-05-03T15:03:16.159Z,46.68
2023-05-03T15:05:44.482Z,46.94
2023-05-03T15:08:14.008Z,46.95
2023-05-03T15:10:42.542Z,47.03
2023-05-03T15:13:10.206Z,46.65
2023-05-03T15:15:38.648Z,46.85
2023-05-03T15:18:07.987Z,46.78
2023-05-03T15:20:35.873Z,46.39
2023-05-03T15:23:04.871Z,46.63
2023-05-03T15:25:33.068Z,46.46
2023-05-03T15:28:03.661Z,46.51
2023-05-03T15:30:32.833Z,46.23
2023-05-03T15:33:00.975Z,46.52
2023-05-03T15:35:28.587Z,46.25
2023-05-03T15:37:55.759Z,46.38
2023-05-03T15:40:26.058Z,46.00
2023-05-03T15:42:54.076Z,46.33
2023-05-03T15:45:23.167Z,45.70
2023-05-03T15:47:50.643Z,46.15
2023-05-03T15:50:18.350Z,45.71
2023-05-03T15:52:48.577Z,45.71
2023-05-03T15:55:15.785Z,45.96
2023-05-03T15:57:45.408Z,46.03
2023-05-03T16:00:16.265Z,45.75
2023-05-03T16:02:43.480Z,45.75
2023-05-03T16:05:11.607Z,45.44
2023-05-03T16:07:39.135Z,45.40
2023-05-03T16:10:09.350Z,45.30
2023-05-03T16:12:37.206Z,45.39
2023-05-03T16:15:05.297Z,45.51
2023-05-03T16:17:35.426Z,45.17
2023-05-03T16:20:05.735Z,45.36
2023-05-03T16:22:32.857Z,45.37
2023-05-03T16:24:59.728Z,45.33
2023-05-03T16:27:26.690Z,44.95
2023-05-03T16:29:54.253Z,45.24
2023-05-03T16:32:22.134Z,44.97
2023-05-03T16:34:50.433Z,44.86
2023-05-03T16:37:17.514Z,45.12
2023-05-03T16:39:44.715Z,45.01
2023-05-03T16:42:12.047Z,45.08
2023-05-03T16:44:39.281Z,44.98
2023-05-03T16:47:06.385Z,44.88
2023-05-03T16:49:36.984Z,44.78
2023-05-03T16:52:04.784Z,44.80
2023-05-03T16:54:32.314Z,45.19
2023-05-03T16:56:59.414Z,44.78
2023-05-03T16:59:27.912Z,45.08
2023-05-03T17:01:54.950Z,45.15
2023-05-03T17:04:22.554Z,45.15
2023-05-03T17:06:49.650Z,45.09
2023-05-03T17:09:17.393Z,45.10
2023-05-03T17:11:44.498Z,45.17
2023-05-03T17:14:11.627Z,45.29
2023-05-03T17:16:44.538Z,45.17
2023-05-03T17:19:11.641Z,45.35
2023-05-03T17:21:38.612Z,45.70
2023-05-03T17:24:05.963Z,45.58
2023-05-03T17:26:32.893Z,45.12
2023-05-03T17:28:59.890Z,45.32
2023-05-03T17:31:27.233Z,45.35
2023-05-03T17:33:54.257Z,45.42
2023-05-03T17:36:22.511Z,45.75
2023-05-03T17:38:50.316Z,45.43
2023-05-03T17:41:17.428Z,45.09
2023-05-03T17:43:44.727Z,45.07
2023-05-03T17:46:14.660Z,45.37
2023-05-03T17:48:48.360Z,45.03
2023-05-03T17:51:15.494Z,45.19
2023-05-03T17:53:43.054Z,45.26
2023-05-03T17:56:18.308Z,44.63
2023-05-03T17:58:46.725Z,44.80
2023-05-03T18:01:15.770Z,45.05
2023-05-03T18:03:43.392Z,44.80
2023-05-03T18:06:13.305Z,44.62
2023-05-03T18:08:41.460Z,44.50
2023-05-03T18:11:09.401Z,44.81
2023-05-03T18:16:08.236Z,44.74
2023-05-03T18:18:35.757Z,45.11
2023-05-03T18:21:04.788Z,45.06
2023-05-03T18:23:33.432Z,44.66
2023-05-03T18:26:00.711Z,44.80
2023-05-03T18:28:27.787Z,44.35
2023-05-03T18:30:58.408Z,44.44
2023-05-03T18:33:25.381Z,44.47
2023-05-03T18:35:53.096Z,44.62
2023-05-03T18:38:21.511Z,44.82
2023-05-03T18:40:49.748Z,44.97
2023-05-03T18:43:17.381Z,45.07
2023-05-03T18:45:44.952Z,45.17
2023-05-03T18:48:12.098Z,45.20
2023-05-03T18:50:39.752Z,45.03
2023-05-03T18:53:07.322Z,44.93
2023-05-03T18:55:34.555Z,44.57
2023-05-03T18:58:01.620Z,44.78
2023-05-03T19:00:28.599Z,44.65
2023-05-03T19:02:55.580Z,44.86
2023-05-03T19:05:22.586Z,44.67
2023-05-03T19:07:49.569Z,44.75
2023-05-03T19:10:17.690Z,44.95
2023-05-03T19:12:44.948Z,45.37
2023-05-03T19:15:12.345Z,45.55
2023-05-03T19:17:41.875Z,45.14
2023-05-03T19:20:10.389Z,45.64
2023-05-03T19:22:37.913Z,45.56
2023-05-03T19:25:06.252Z,45.69
2023-05-03T19:27:33.566Z,45.63
2023-05-03T19:30:00.709Z,45.82
2023-05-03T19:32:27.834Z,45.51
2023-05-03T19:34:54.875Z,45.83
2023-05-03T19:37:22.091Z,46.10
2023-05-03T19:39:49.174Z,46.16
2023-05-03T19:42:17.201Z,45.92
2023-05-03T19:44:44.121Z,45.96
2023-05-03T19:47:11.051Z,46.24
2023-05-03T19:49:38.208Z,45.93
2023-05-03T19:52:06.106Z,46.06
2023-05-03T19:54:33.218Z,45.93
2023-05-03T19:57:05.991Z,46.14
2023-05-03T19:59:33.743Z,46.52
2023-05-03T20:02:01.011Z,46.33
2023-05-03T20:04:28.296Z,46.51
2023-05-03T20:06:55.289Z,46.45
2023-05-03T20:09:23.285Z,46.37
2023-05-03T20:11:59.601Z,46.77
2023-05-03T20:14:29.154Z,46.59
2023-05-03T20:16:56.861Z,46.56
2023-05-03T20:19:25.235Z,46.94
2023-05-03T20:21:52.721Z,46.42
2023-05-03T20:24:21.398Z,46.38
2023-05-03T20:26:48.364Z,46.46
2023-05-03T20:29:15.606Z,46.94
2023-05-03T20:31:42.779Z,46.77
2023-05-03T20:34:09.824Z,46.67
2023-05-03T20:36:36.998Z,46.79
2023-05-03T20:39:05.055Z,46.63
2023-05-03T20:41:32.306Z,46.51
2023-05-03T20:43:59.519Z,47.14
2023-05-03T20:46:26.960Z,46.82
2023-05-03T20:48:54.143Z,46.60
2023-05-03T20:51:21.171Z,47.09
2023-05-03T20:53:48.318Z,47.15
2023-05-03T20:56:15.316Z,46.80
2023-05-03T20:58:42.347Z,47.00
2023-05-03T21:01:09.467Z,47.20
2023-05-03T21:03:36.664Z,47.38
2023-05-03T21:06:05.502Z,47.33
2023-05-03T21:08:32.676Z,46.77
2023-05-03T21:10:59.665Z,47.32
2023-05-03T21:13:26.604Z,47.30
2023-05-03T21:15:54.839Z,46.82
2023-05-03T21:18:22.044Z,46.80
2023-05-03T21:20:49.026Z,46.83
2023-05-03T21:23:15.985Z,47.11
2023-05-03T21:25:43.320Z,47.16
2023-05-03T21:28:10.555Z,47.44
2023-05-03T21:30:38.478Z,47.50
2023-05-03T21:33:05.693Z,47.26
2023-05-03T21:35:32.745Z,47.63
2023-05-03T21:37:59.721Z,47.29
2023-05-03T21:40:26.866Z,47.67
2023-05-03T21:42:54.012Z,47.13
2023-05-03T21:45:21.338Z,47.11
2023-05-03T21:47:48.744Z,47.69
2023-05-03T21:50:15.925Z,47.57
2023-05-03T21:52:42.953Z,47.35
2023-05-03T21:55:10.184Z,47.47
2023-05-03T21:57:37.951Z,47.34
2023-05-03T22:00:06.975Z,47.51
2023-05-03T22:02:35.756Z,47.65
2023-05-03T22:05:03.167Z,47.63
2023-05-03T22:07:30.342Z,47.21
2023-05-03T22:09:57.365Z,47.52
2023-05-03T22:12:25.145Z,47.34
2023-05-03T22:14:52.813Z,47.16
2023-05-03T22:17:19.858Z,47.56
2023-05-03T22:19:46.855Z,47.72
2023-05-03T22:22:14.085Z,47.83
2023-05-03T22:24:41.523Z,47.40
2023-05-03T22:27:08.559Z,47.71
2023-05-03T22:29:36.428Z,47.92
2023-05-03T22:32:03.437Z,47.93
2023-05-03T22:34:30.455Z,47.70
2023-05-03T22:36:57.369Z,47.59
2023-05-03T22:39:26.666Z,47.57
2023-05-03T22:41:53.604Z,48.10
2023-05-03T22:44:20.720Z,48.06
2023-05-03T22:46:47.627Z,47.92
2023-05-03T22:49:14.632Z,48.17
2023-05-03T22:51:41.718Z,47.62
2023-05-03T22:54:08.734Z,47.89
2023-05-03T22:56:35.746Z,48.07
2023-05-03T22:59:02.935Z,47.79
2023-05-03T23:01:30.530Z,47.76
2023-05-03T23:03:57.717Z,47.82
2023-05-03T23:06:25.145Z,48.28
2023-05-03T23:08:52.371Z,48.07
2023-05-03T23:11:21.007Z,47.82
2023-05-03T23:13:48.209Z,47.79
2023-05-03T23:16:15.430Z,48.28
2023-05-03T23:18:42.795Z,48.19
2023-05-03T23:21:10.126Z,48.33
2023-05-03T23:23:37.345Z,47.71
2023-05-03T23:26:04.397Z,48.28
2023-05-03T23:28:31.969Z,48.13
2023-05-03T23:30:59.520Z,48.13
2023-05-03T23:33:27.338Z,47.90
2023-05-03T23:35:54.929Z,48.50
2023-05-03T23:38:21.972Z,48.41
2023-05-03T23:40:49.024Z,48.15
2023-05-03T23:43:16.268Z,48.05
2023-05-03T23:45:43.351Z,48.25
2023-05-03T23:48:10.851Z,48.15
2023-05-03T23:50:38.025Z,48.03
2023-05-03T23:53:05.431Z,48.24
2023-05-03T23:55:32.507Z,48.09
2023-05-03T23:57:59.478Z,48.06
